createdAt,value
2019-04-10T00:00:37.438Z,100933.88
2019-04-10T00:01:44.597Z,100926.05
2019-04-10T00:02:50.134Z,100929.33
2019-04-10T00:03:55.232Z,100923.28
2019-04-10T00:05:01.248Z,100929.92
2019-04-10T00:06:06.900Z,100922.91
2019-04-10T00:07:16.483Z,100923.90
2019-04-10T00:08:19.827Z,100929.33
2019-04-10T00:09:25.266Z,100929.09
2019-04-10T00:10:30.369Z,100928.39
2019-04-10T00:11:36.627Z,100929.83
2019-04-10T00:12:42.295Z,100925.63
2019-04-10T00:13:47.623Z,100933.84
2019-04-10T00:14:52.635Z,100929.49
2019-04-10T00:15:59.031Z,100929.13
2019-04-10T00:17:04.795Z,100925.76
2019-04-10T00:18:12.203Z,100932.03
2019-04-10T00:19:18.265Z,100932.66
2019-04-10T00:20:24.537Z,100930.95
2019-04-10T00:21:29.771Z,100930.72
2019-04-10T00:22:34.810Z,100929.51
2019-04-10T00:23:40.264Z,100929.65
2019-04-10T00:24:46.179Z,100932.08
2019-04-10T00:25:51.246Z,100925.44
2019-04-10T00:26:56.492Z,100938.34
2019-04-10T00:28:01.576Z,100929.30
2019-04-10T00:29:07.702Z,100924.61
2019-04-10T00:30:13.237Z,100927.38
2019-04-10T00:31:18.253Z,100932.08
2019-04-10T00:32:23.771Z,100929.91
2019-04-10T00:33:29.128Z,100927.25
2019-04-10T00:34:34.145Z,100921.71
2019-04-10T00:35:39.481Z,100929.81
2019-04-10T00:36:45.615Z,100930.30
2019-04-10T00:37:51.257Z,100923.91
2019-04-10T00:38:56.377Z,100928.22
2019-04-10T00:40:03.282Z,100928.84
2019-04-10T00:41:10.108Z,100928.00
2019-04-10T00:42:15.184Z,100931.75
2019-04-10T00:43:20.719Z,100926.06
2019-04-10T00:44:25.918Z,100930.67
2019-04-10T00:45:30.854Z,100925.94
2019-04-10T00:46:36.009Z,100934.90
2019-04-10T00:47:41.343Z,100927.52
2019-04-10T00:48:46.360Z,100931.16
2019-04-10T00:49:51.911Z,100931.27
2019-04-10T00:50:57.148Z,100930.56
2019-04-10T00:52:02.290Z,100935.46
2019-04-10T00:53:08.943Z,100930.27
2019-04-10T00:54:16.091Z,100936.19
2019-04-10T00:55:21.776Z,100936.66
2019-04-10T00:56:28.334Z,100936.33
2019-04-10T00:57:33.824Z,100932.45
2019-04-10T00:58:39.538Z,100935.58
2019-04-10T00:59:45.007Z,100933.41
2019-04-10T01:00:50.386Z,100931.84
2019-04-10T01:01:56.289Z,100932.94
2019-04-10T01:03:01.535Z,100930.39
2019-04-10T01:04:07.040Z,100930.53
2019-04-10T01:05:13.152Z,100923.28
2019-04-10T01:06:18.352Z,100931.97
2019-04-10T01:07:34.523Z,100933.91
2019-04-10T01:08:30.725Z,100924.36
2019-04-10T01:09:35.751Z,100930.52
2019-04-10T01:10:42.153Z,100935.58
2019-04-10T01:11:47.541Z,100929.05
2019-04-10T01:12:52.679Z,100926.06
2019-04-10T01:13:59.056Z,100930.04
2019-04-10T01:15:04.740Z,100925.31
2019-04-10T01:16:09.797Z,100927.63
2019-04-10T01:17:15.806Z,100929.91
2019-04-10T01:18:21.358Z,100929.06
2019-04-10T01:19:27.153Z,100932.56
2019-04-10T01:20:33.489Z,100933.04
2019-04-10T01:21:38.824Z,100927.02
2019-04-10T01:22:44.105Z,100933.28
2019-04-10T01:23:49.639Z,100930.73
2019-04-10T01:24:55.781Z,100928.22
2019-04-10T01:26:01.243Z,100931.72
2019-04-10T01:27:07.645Z,100931.95
2019-04-10T01:28:12.969Z,100931.95
2019-04-10T01:29:18.222Z,100926.89
2019-04-10T01:30:24.297Z,100930.88
2019-04-10T01:31:29.416Z,100927.47
2019-04-10T01:32:34.527Z,100933.77
2019-04-10T01:33:39.627Z,100929.03
2019-04-10T01:34:45.474Z,100922.54
2019-04-10T01:35:50.885Z,100933.16
2019-04-10T01:36:56.508Z,100928.32
2019-04-10T01:38:04.594Z,100933.16
2019-04-10T01:39:10.431Z,100930.60
2019-04-10T01:40:15.800Z,100929.28
2019-04-10T01:41:20.787Z,100927.95
2019-04-10T01:42:25.980Z,100927.10
2019-04-10T01:43:31.293Z,100932.88
2019-04-10T01:44:36.498Z,100930.23
2019-04-10T01:45:43.966Z,100931.21
2019-04-10T01:46:49.447Z,100927.23
2019-04-10T01:47:55.337Z,100927.00
2019-04-10T01:49:00.371Z,100932.17
2019-04-10T01:50:06.389Z,100923.50
2019-04-10T01:51:11.448Z,100925.30
2019-04-10T01:52:17.255Z,100926.15
2019-04-10T01:53:23.946Z,100929.28
2019-04-10T01:54:29.155Z,100932.30
2019-04-10T01:55:35.600Z,100927.81
2019-04-10T01:56:41.619Z,100924.45
2019-04-10T01:57:48.352Z,100923.50
2019-04-10T01:58:53.771Z,100925.16
2019-04-10T01:59:58.980Z,100927.47
2019-04-10T02:01:10.250Z,100926.15
2019-04-10T02:02:32.299Z,100923.50
2019-04-10T02:03:38.311Z,100929.75
2019-04-10T02:04:43.895Z,100926.25
2019-04-10T02:05:49.249Z,100922.88
2019-04-10T02:06:54.258Z,100926.02
2019-04-10T02:08:07.633Z,100928.29
2019-04-10T02:09:09.581Z,100926.62
2019-04-10T02:10:16.908Z,100922.27
2019-04-10T02:11:22.168Z,100927.67
2019-04-10T02:12:28.408Z,100929.48
2019-04-10T02:13:33.879Z,100923.46
2019-04-10T02:14:39.097Z,100930.56
2019-04-10T02:15:44.430Z,100925.50
2019-04-10T02:16:50.059Z,100928.28
2019-04-10T02:17:55.303Z,100930.19
2019-04-10T02:19:01.680Z,100924.17
2019-04-10T02:20:07.537Z,100929.84
2019-04-10T02:21:13.500Z,100923.80
2019-04-10T02:22:18.793Z,100927.77
2019-04-10T02:23:23.897Z,100932.45
2019-04-10T02:24:29.362Z,100931.84
2019-04-10T02:25:34.469Z,100929.80
2019-04-10T02:26:39.621Z,100937.75
2019-04-10T02:27:44.803Z,100935.34
2019-04-10T02:28:49.875Z,100932.07
2019-04-10T02:29:55.771Z,100930.75
2019-04-10T02:31:02.723Z,100935.67
2019-04-10T02:32:10.154Z,100934.24
2019-04-10T02:33:15.909Z,100935.20
2019-04-10T02:34:21.384Z,100933.49
2019-04-10T02:35:27.500Z,100933.49
2019-04-10T02:36:34.323Z,100939.41
2019-04-10T02:37:41.567Z,100930.83
2019-04-10T02:38:59.383Z,100938.92
2019-04-10T02:39:57.974Z,100934.19
2019-04-10T02:41:01.670Z,100930.45
2019-04-10T02:42:08.226Z,100933.09
2019-04-10T02:43:14.029Z,100934.05
2019-04-10T02:44:20.634Z,100935.60
2019-04-10T02:45:26.027Z,100936.59
2019-04-10T02:46:31.413Z,100942.84
2019-04-10T02:47:37.048Z,100938.48
2019-04-10T02:48:43.375Z,100937.77
2019-04-10T02:49:49.320Z,100937.77
2019-04-10T02:50:55.521Z,100934.87
2019-04-10T02:52:00.782Z,100940.64
2019-04-10T02:53:07.760Z,100939.89
2019-04-10T02:54:14.083Z,100938.22
2019-04-10T02:55:20.381Z,100944.38
2019-04-10T02:56:25.912Z,100944.47
2019-04-10T02:57:31.639Z,100938.80
2019-04-10T02:58:38.545Z,100940.12
2019-04-10T02:59:45.243Z,100943.24
2019-04-10T03:00:52.551Z,100941.10
2019-04-10T03:01:58.013Z,100946.50
2019-04-10T03:03:05.365Z,100944.08
2019-04-10T03:04:11.862Z,100946.86
2019-04-10T03:05:18.325Z,100945.25
2019-04-10T03:06:24.673Z,100951.25
2019-04-10T03:07:31.719Z,100944.52
2019-04-10T03:08:51.564Z,100950.03
2019-04-10T03:09:56.260Z,100949.28
2019-04-10T03:10:56.786Z,100945.53
2019-04-10T03:11:57.659Z,100958.05
2019-04-10T03:13:02.791Z,100946.33
2019-04-10T03:14:08.105Z,100951.47
2019-04-10T03:15:15.055Z,100943.75
2019-04-10T03:16:21.532Z,100947.95
2019-04-10T03:17:28.107Z,100947.19
2019-04-10T03:18:33.333Z,100956.11
2019-04-10T03:19:38.652Z,100954.63
2019-04-10T03:20:44.716Z,100954.63
2019-04-10T03:21:49.916Z,100956.05
2019-04-10T03:22:55.468Z,100954.47
2019-04-10T03:24:00.622Z,100955.08
2019-04-10T03:25:06.289Z,100958.58
2019-04-10T03:26:11.280Z,100958.58
2019-04-10T03:27:16.435Z,100956.88
2019-04-10T03:28:21.563Z,100953.00
2019-04-10T03:29:27.406Z,100953.84
2019-04-10T03:30:34.659Z,100954.92
2019-04-10T03:31:41.264Z,100943.92
2019-04-10T03:33:21.087Z,100961.53
2019-04-10T03:34:26.079Z,100958.04
2019-04-10T03:35:34.696Z,100955.14
2019-04-10T03:36:40.804Z,100949.91
2019-04-10T03:37:46.688Z,100949.91
2019-04-10T03:38:58.780Z,100951.61
2019-04-10T03:39:59.367Z,100960.05
2019-04-10T03:41:04.549Z,100961.38
2019-04-10T03:42:10.897Z,100966.20
2019-04-10T03:43:17.309Z,100962.13
2019-04-10T03:44:22.876Z,100962.61
2019-04-10T03:45:28.551Z,100961.75
2019-04-10T03:46:33.923Z,100962.32
2019-04-10T03:47:39.720Z,100964.24
2019-04-10T03:48:45.299Z,100970.86
2019-04-10T03:49:50.656Z,100969.16
2019-04-10T03:50:56.273Z,100965.19
2019-04-10T03:52:03.136Z,100965.19
2019-04-10T03:53:08.342Z,100961.81
2019-04-10T03:54:13.542Z,100970.13
2019-04-10T03:55:18.947Z,100972.78
2019-04-10T03:56:25.483Z,100970.61
2019-04-10T03:57:30.964Z,100972.78
2019-04-10T03:58:37.708Z,100974.20
2019-04-10T03:59:43.605Z,100973.00
2019-04-10T04:00:50.547Z,100977.91
2019-04-10T04:01:55.725Z,100979.33
2019-04-10T04:03:00.726Z,100977.02
2019-04-10T04:04:06.985Z,100977.59
2019-04-10T04:05:12.737Z,100974.59
2019-04-10T04:06:17.851Z,100980.92
2019-04-10T04:07:24.725Z,100982.59
2019-04-10T04:08:31.906Z,100982.59
2019-04-10T04:09:37.761Z,100977.52
2019-04-10T04:10:42.777Z,100979.05
2019-04-10T04:11:48.243Z,100984.55
2019-04-10T04:12:53.421Z,100984.55
2019-04-10T04:13:59.819Z,100987.88
2019-04-10T04:15:05.469Z,100983.28
2019-04-10T04:16:10.927Z,100986.48
2019-04-10T04:17:16.822Z,100985.38
2019-04-10T04:18:22.021Z,100984.17
2019-04-10T04:19:28.193Z,100980.51
2019-04-10T04:20:33.654Z,100992.58
2019-04-10T04:21:39.693Z,100993.52
2019-04-10T04:22:45.957Z,100999.41
2019-04-10T04:23:51.753Z,100991.68
2019-04-10T04:24:58.087Z,100999.61
2019-04-10T04:26:03.650Z,101003.20
2019-04-10T04:27:09.127Z,101000.38
2019-04-10T04:28:14.686Z,100998.12
2019-04-10T04:29:20.611Z,101000.38
2019-04-10T04:30:28.299Z,101006.27
2019-04-10T04:31:33.325Z,101007.20
2019-04-10T04:32:39.873Z,101007.80
2019-04-10T04:33:45.191Z,101005.63
2019-04-10T04:34:50.601Z,100994.61
2019-04-10T04:35:56.208Z,101003.66
2019-04-10T04:37:02.456Z,101002.80
2019-04-10T04:38:07.775Z,101007.24
2019-04-10T04:39:21.697Z,101004.25
2019-04-10T04:40:20.131Z,101007.83
2019-04-10T04:41:25.386Z,101003.48
2019-04-10T04:42:30.719Z,101012.27
2019-04-10T04:43:36.954Z,101010.09
2019-04-10T04:44:43.135Z,100998.27
2019-04-10T04:45:49.381Z,101002.11
2019-04-10T04:46:54.597Z,101002.11
2019-04-10T04:48:01.646Z,101012.22
2019-04-10T04:49:06.925Z,101012.09
2019-04-10T04:50:12.244Z,101015.59
2019-04-10T04:51:17.597Z,101016.56
2019-04-10T04:52:23.775Z,101010.89
2019-04-10T04:53:29.927Z,101009.86
2019-04-10T04:54:35.212Z,101018.91
2019-04-10T04:55:40.581Z,101018.91
2019-04-10T04:56:46.378Z,101016.47
2019-04-10T04:57:51.785Z,101022.73
2019-04-10T04:58:56.754Z,101023.67
2019-04-10T05:00:01.746Z,101021.88
2019-04-10T05:01:07.288Z,101017.53
2019-04-10T05:02:12.550Z,101016.80
2019-04-10T05:03:18.573Z,101024.73
2019-04-10T05:04:24.955Z,101027.58
2019-04-10T05:05:30.058Z,101023.11
2019-04-10T05:06:35.294Z,101031.89
2019-04-10T05:07:41.699Z,101034.45
2019-04-10T05:08:46.858Z,101027.08
2019-04-10T05:09:52.500Z,101038.15
2019-04-10T05:10:57.958Z,101033.68
2019-04-10T05:12:03.053Z,101033.68
2019-04-10T05:13:08.269Z,101042.84
2019-04-10T05:14:13.586Z,101037.17
2019-04-10T05:15:18.939Z,101049.53
2019-04-10T05:16:24.845Z,101046.16
2019-04-10T05:17:30.950Z,101052.30
2019-04-10T05:18:37.276Z,101046.08
2019-04-10T05:19:42.630Z,101050.98
2019-04-10T05:20:50.441Z,101049.66
2019-04-10T05:21:55.174Z,101052.77
2019-04-10T05:23:00.122Z,101050.72
2019-04-10T05:24:05.372Z,101038.93
2019-04-10T05:25:11.146Z,101052.97
2019-04-10T05:26:16.625Z,101057.02
2019-04-10T05:27:22.604Z,101058.34
2019-04-10T05:28:28.523Z,101047.33
2019-04-10T05:29:34.784Z,101047.33
2019-04-10T05:30:41.109Z,101060.84
2019-04-10T05:31:46.800Z,101060.54
2019-04-10T05:32:52.187Z,101060.54
2019-04-10T05:33:57.510Z,101064.23
2019-04-10T05:35:06.540Z,101065.67
2019-04-10T05:36:10.012Z,101065.75
2019-04-10T05:37:15.725Z,101070.19
2019-04-10T05:38:20.900Z,101069.72
2019-04-10T05:39:26.723Z,101068.40
2019-04-10T05:40:33.272Z,101063.97
2019-04-10T05:41:39.729Z,101069.91
2019-04-10T05:42:45.128Z,101073.66
2019-04-10T05:43:50.943Z,101071.00
2019-04-10T05:44:56.587Z,101066.92
2019-04-10T05:46:01.467Z,101066.92
2019-04-10T05:47:07.390Z,101071.33
2019-04-10T05:48:12.534Z,101073.97
2019-04-10T05:49:17.686Z,101077.73
2019-04-10T05:50:23.514Z,101073.22
2019-04-10T05:51:28.922Z,101070.58
2019-04-10T05:52:33.961Z,101078.89
2019-04-10T05:53:39.588Z,101081.53
2019-04-10T05:54:44.626Z,101079.83
2019-04-10T05:55:49.624Z,101081.53
2019-04-10T05:56:54.738Z,101082.27
2019-04-10T05:57:59.703Z,101085.77
2019-04-10T05:59:05.239Z,101088.28
2019-04-10T06:00:12.480Z,101086.67
2019-04-10T06:01:29.946Z,101086.67
2019-04-10T06:02:25.187Z,101089.38
2019-04-10T06:03:30.886Z,101086.53
2019-04-10T06:04:36.203Z,101083.85
2019-04-10T06:05:42.242Z,101081.59
2019-04-10T06:06:48.488Z,101081.59
2019-04-10T06:07:53.948Z,101090.91
2019-04-10T06:09:00.440Z,101092.02
2019-04-10T06:10:09.916Z,101094.92
2019-04-10T06:11:13.707Z,101084.17
2019-04-10T06:12:20.316Z,101093.22
2019-04-10T06:13:25.718Z,101100.73
2019-04-10T06:14:30.830Z,101100.73
2019-04-10T06:15:37.142Z,101095.06
2019-04-10T06:16:42.616Z,101096.77
2019-04-10T06:17:49.033Z,101101.85
2019-04-10T06:18:54.014Z,101099.38
2019-04-10T06:19:59.351Z,101098.05
2019-04-10T06:21:05.087Z,101105.02
2019-04-10T06:22:11.227Z,101100.11
2019-04-10T06:23:17.039Z,101102.55
2019-04-10T06:24:22.495Z,101105.88
2019-04-10T06:25:28.713Z,101101.48
2019-04-10T06:26:35.519Z,101102.98
2019-04-10T06:27:40.883Z,101101.09
2019-04-10T06:28:46.526Z,101099.86
2019-04-10T06:29:51.644Z,101089.79
2019-04-10T06:30:56.891Z,101103.78
2019-04-10T06:32:03.182Z,101100.55
2019-04-10T06:33:09.710Z,101106.95
2019-04-10T06:34:17.581Z,101099.77
2019-04-10T06:35:22.011Z,101095.98
2019-04-10T06:36:27.422Z,101097.47
2019-04-10T06:37:32.723Z,101104.09
2019-04-10T06:38:37.662Z,101099.77
2019-04-10T06:39:44.448Z,101095.25
2019-04-10T06:40:50.347Z,101095.25
2019-04-10T06:41:56.096Z,101101.91
2019-04-10T06:43:01.175Z,101108.06
2019-04-10T06:44:06.120Z,101103.14
2019-04-10T06:45:11.487Z,101108.53
2019-04-10T06:46:16.804Z,101108.53
2019-04-10T06:47:22.321Z,101112.03
2019-04-10T06:48:27.875Z,101110.75
2019-04-10T06:49:33.208Z,101110.75
2019-04-10T06:50:39.129Z,101114.25
2019-04-10T06:51:45.114Z,101113.26
2019-04-10T06:52:51.330Z,101108.01
2019-04-10T06:54:02.823Z,101119.11
2019-04-10T06:55:04.950Z,101119.11
2019-04-10T06:56:11.243Z,101110.91
2019-04-10T06:57:16.849Z,101122.52
2019-04-10T06:58:23.622Z,101122.61
2019-04-10T06:59:28.898Z,101123.47
2019-04-10T07:00:33.973Z,101127.05
2019-04-10T07:01:44.355Z,101122.61
2019-04-10T07:02:46.295Z,101121.20
2019-04-10T07:03:59.135Z,101124.95
2019-04-10T07:05:04.917Z,101117.36
2019-04-10T07:06:11.521Z,101123.30
2019-04-10T07:07:15.556Z,101123.68
2019-04-10T07:08:23.670Z,101123.68
2019-04-10T07:09:27.665Z,101125.39
2019-04-10T07:10:45.394Z,101128.89
2019-04-10T07:11:41.127Z,101123.21
2019-04-10T07:12:46.400Z,101130.56
2019-04-10T07:13:53.812Z,101131.53
2019-04-10T07:14:59.657Z,101135.13
2019-04-10T07:16:04.817Z,101127.74
2019-04-10T07:17:10.679Z,101129.06
2019-04-10T07:18:18.904Z,101136.06
2019-04-10T07:19:24.201Z,101128.13
2019-04-10T07:20:29.820Z,101131.92
2019-04-10T07:21:36.063Z,101131.92
2019-04-10T07:22:46.666Z,101132.13
2019-04-10T07:23:49.370Z,101129.87
2019-04-10T07:24:54.524Z,101131.92
2019-04-10T07:25:59.668Z,101130.59
2019-04-10T07:27:06.184Z,101137.51
2019-04-10T07:28:12.526Z,101132.95
2019-04-10T07:29:21.094Z,101135.85
2019-04-10T07:30:26.666Z,101143.97
2019-04-10T07:31:34.793Z,101138.58
2019-04-10T07:32:43.320Z,101144.22
2019-04-10T07:33:50.017Z,101138.84
2019-04-10T07:34:57.301Z,101141.27
2019-04-10T07:36:04.289Z,101141.27
2019-04-10T07:37:09.444Z,101145.03
2019-04-10T07:38:14.170Z,101144.34
2019-04-10T07:39:19.355Z,101149.90
2019-04-10T07:40:24.939Z,101149.90
2019-04-10T07:41:30.088Z,101142.34
2019-04-10T07:42:39.726Z,101145.72
2019-04-10T07:43:42.587Z,101146.82
2019-04-10T07:44:47.879Z,101142.13
2019-04-10T07:45:56.620Z,101149.64
2019-04-10T07:47:00.871Z,101154.08
2019-04-10T07:48:06.725Z,101148.78
2019-04-10T07:49:12.004Z,101146.61
2019-04-10T07:50:17.063Z,101153.70
2019-04-10T07:51:22.379Z,101149.26
2019-04-10T07:52:27.697Z,101154.94
2019-04-10T07:53:33.206Z,101153.61
2019-04-10T07:54:38.724Z,101157.78
2019-04-10T07:55:57.504Z,101157.78
2019-04-10T07:56:51.918Z,101157.19
2019-04-10T07:57:57.309Z,101156.23
2019-04-10T07:59:02.698Z,101156.23
2019-04-10T08:00:11.117Z,101157.95
2019-04-10T08:01:16.235Z,101162.27
2019-04-10T08:02:21.230Z,101162.27
2019-04-10T08:03:26.181Z,101161.41
2019-04-10T08:04:31.356Z,101157.44
2019-04-10T08:05:37.426Z,101156.97
2019-04-10T08:06:42.502Z,101156.97
2019-04-10T08:07:47.505Z,101148.93
2019-04-10T08:08:53.319Z,101156.41
2019-04-10T08:09:59.183Z,101163.75
2019-04-10T08:11:05.088Z,101163.75
2019-04-10T08:12:11.344Z,101166.41
2019-04-10T08:13:17.300Z,101161.11
2019-04-10T08:14:22.388Z,101142.62
2019-04-10T08:15:27.454Z,101156.92
2019-04-10T08:16:32.901Z,101163.33
2019-04-10T08:17:39.019Z,101159.13
2019-04-10T08:18:44.370Z,101163.02
2019-04-10T08:19:49.382Z,101159.52
2019-04-10T08:20:55.171Z,101160.45
2019-04-10T08:22:01.212Z,101161.22
2019-04-10T08:23:07.944Z,101161.22
2019-04-10T08:24:13.655Z,101158.92
2019-04-10T08:25:18.702Z,101155.20
2019-04-10T08:26:24.684Z,101154.84
2019-04-10T08:27:48.530Z,101154.84
2019-04-10T08:28:53.795Z,101162.23
2019-04-10T08:29:59.120Z,101160.91
2019-04-10T08:31:04.460Z,101163.00
2019-04-10T08:32:09.930Z,101163.38
2019-04-10T08:33:14.915Z,101164.48
2019-04-10T08:34:22.353Z,101163.28
2019-04-10T08:35:30.047Z,101168.48
2019-04-10T08:36:35.315Z,101165.72
2019-04-10T08:37:41.091Z,101167.32
2019-04-10T08:38:46.676Z,101166.63
2019-04-10T08:39:52.638Z,101160.83
2019-04-10T08:40:58.644Z,101167.73
2019-04-10T08:42:03.956Z,101169.41
2019-04-10T08:43:08.968Z,101149.97
2019-04-10T08:44:13.909Z,101163.88
2019-04-10T08:45:19.223Z,101165.84
2019-04-10T08:46:24.207Z,101169.59
2019-04-10T08:47:29.246Z,101170.59
2019-04-10T08:48:34.661Z,101162.55
2019-04-10T08:49:41.167Z,101167.88
2019-04-10T08:50:46.201Z,101172.23
2019-04-10T08:51:52.044Z,101173.56
2019-04-10T08:52:57.887Z,101176.47
2019-04-10T08:54:03.038Z,101174.66
2019-04-10T08:55:10.021Z,101172.73
2019-04-10T08:56:16.216Z,101180.09
2019-04-10T08:57:21.520Z,101171.19
2019-04-10T08:58:27.142Z,101174.09
2019-04-10T08:59:32.160Z,101177.97
2019-04-10T09:00:37.568Z,101182.58
2019-04-10T09:01:42.751Z,101174.48
2019-04-10T09:02:48.609Z,101182.22
2019-04-10T09:03:55.154Z,101175.97
2019-04-10T09:05:01.413Z,101181.05
2019-04-10T09:06:07.246Z,101181.20
2019-04-10T09:07:12.313Z,101191.95
2019-04-10T09:08:17.262Z,101184.97
2019-04-10T09:09:23.618Z,101181.27
2019-04-10T09:10:28.860Z,101184.16
2019-04-10T09:11:34.007Z,101178.50
2019-04-10T09:12:39.189Z,101188.88
2019-04-10T09:13:44.473Z,101182.63
2019-04-10T09:14:49.664Z,101187.84
2019-04-10T09:15:54.698Z,101183.38
2019-04-10T09:17:00.726Z,101185.42
2019-04-10T09:18:06.122Z,101188.55
2019-04-10T09:19:11.939Z,101181.45
2019-04-10T09:20:18.317Z,101183.15
2019-04-10T09:21:23.805Z,101186.90
2019-04-10T09:22:30.144Z,101178.80
2019-04-10T09:23:42.545Z,101184.02
2019-04-10T09:24:42.500Z,101179.42
2019-04-10T09:25:47.417Z,101176.20
2019-04-10T09:26:52.841Z,101184.02
2019-04-10T09:27:58.026Z,101181.75
2019-04-10T09:29:03.081Z,101185.97
2019-04-10T09:30:08.851Z,101178.38
2019-04-10T09:31:13.800Z,101180.05
2019-04-10T09:32:19.949Z,101180.81
2019-04-10T09:33:28.266Z,101183.80
2019-04-10T09:34:32.057Z,101180.61
2019-04-10T09:35:38.347Z,101182.66
2019-04-10T09:36:43.720Z,101181.22
2019-04-10T09:37:48.918Z,101181.09
2019-04-10T09:40:05.694Z,101187.73
2019-04-10T09:41:11.934Z,101180.98
2019-04-10T09:42:17.191Z,101189.33
2019-04-10T09:43:23.169Z,101185.22
2019-04-10T09:44:28.061Z,101189.09
2019-04-10T09:45:33.002Z,101175.31
2019-04-10T09:46:38.298Z,101178.81
2019-04-10T09:47:43.869Z,101175.11
2019-04-10T09:48:49.842Z,101179.44
2019-04-10T09:49:55.566Z,101186.45
2019-04-10T09:51:00.540Z,101179.09
2019-04-10T09:52:05.523Z,101179.81
2019-04-10T09:53:10.792Z,101181.04
2019-04-10T09:54:16.113Z,101179.71
2019-04-10T09:55:22.145Z,101178.38
2019-04-10T09:56:27.647Z,101174.40
2019-04-10T09:57:32.643Z,101173.79
2019-04-10T09:58:37.655Z,101178.52
2019-04-10T09:59:42.785Z,101184.17
2019-04-10T10:00:48.247Z,101178.39
2019-04-10T10:01:54.888Z,101176.95
2019-04-10T10:03:00.077Z,101176.34
2019-04-10T10:04:06.972Z,101179.72
2019-04-10T10:05:12.970Z,101171.75
2019-04-10T10:06:27.149Z,101172.59
2019-04-10T10:07:26.253Z,101174.78
2019-04-10T10:08:31.696Z,101169.94
2019-04-10T10:09:37.090Z,101169.84
2019-04-10T10:10:42.110Z,101171.88
2019-04-10T10:11:47.173Z,101170.31
2019-04-10T10:12:52.683Z,101172.02
2019-04-10T10:13:58.491Z,101170.92
2019-04-10T10:15:04.885Z,101163.33
2019-04-10T10:16:10.513Z,101172.50
2019-04-10T10:17:16.801Z,101162.85
2019-04-10T10:18:21.999Z,101159.82
2019-04-10T10:19:26.985Z,101159.58
2019-04-10T10:20:32.187Z,101158.63
2019-04-10T10:21:37.168Z,101160.67
2019-04-10T10:22:42.164Z,101166.70
2019-04-10T10:23:47.872Z,101167.07
2019-04-10T10:24:53.122Z,101168.30
2019-04-10T10:25:59.514Z,101156.68
2019-04-10T10:27:05.356Z,101173.23
2019-04-10T10:28:11.740Z,101171.91
2019-04-10T10:29:17.654Z,101173.23
2019-04-10T10:30:23.188Z,101171.05
2019-04-10T10:31:28.514Z,101175.04
2019-04-10T10:32:33.841Z,101173.13
2019-04-10T10:33:40.061Z,101164.06
2019-04-10T10:34:45.067Z,101161.64
2019-04-10T10:35:50.154Z,101169.98
2019-04-10T10:36:55.945Z,101169.13
2019-04-10T10:38:01.628Z,101160.20
2019-04-10T10:39:17.360Z,101169.88
2019-04-10T10:40:23.382Z,101171.92
2019-04-10T10:41:29.773Z,101177.47
2019-04-10T10:42:37.914Z,101171.20
2019-04-10T10:43:42.597Z,101166.26
2019-04-10T10:44:48.064Z,101168.65
2019-04-10T10:45:53.441Z,101157.06
2019-04-10T10:46:59.930Z,101165.03
2019-04-10T10:48:08.333Z,101162.27
2019-04-10T10:49:12.560Z,101151.87
2019-04-10T10:50:17.971Z,101162.63
2019-04-10T10:51:23.505Z,101172.52
2019-04-10T10:52:28.843Z,101159.48
2019-04-10T10:53:34.691Z,101158.86
2019-04-10T10:54:39.722Z,101169.39
2019-04-10T10:55:45.525Z,101160.20
2019-04-10T10:56:51.007Z,101166.22
2019-04-10T10:57:57.509Z,101165.64
2019-04-10T10:59:03.575Z,101164.54
2019-04-10T11:00:12.819Z,101170.09
2019-04-10T11:01:17.883Z,101164.19
2019-04-10T11:02:23.137Z,101168.77
2019-04-10T11:03:28.581Z,101162.22
2019-04-10T11:04:33.680Z,101158.95
2019-04-10T11:05:39.217Z,101156.63
2019-04-10T11:06:54.871Z,101155.17
2019-04-10T11:07:51.509Z,101153.70
2019-04-10T11:08:56.868Z,101153.19
2019-04-10T11:10:02.151Z,101159.37
2019-04-10T11:11:08.658Z,101166.95
2019-04-10T11:12:14.110Z,101164.66
2019-04-10T11:13:19.092Z,101170.69
2019-04-10T11:14:25.278Z,101164.78
2019-04-10T11:15:30.478Z,101169.84
2019-04-10T11:16:36.585Z,101168.03
2019-04-10T11:17:42.222Z,101167.63
2019-04-10T11:18:48.439Z,101167.12
2019-04-10T11:19:53.537Z,101172.19
2019-04-10T11:21:04.055Z,101177.29
2019-04-10T11:22:07.400Z,101170.38
2019-04-10T11:23:13.340Z,101170.38
2019-04-10T11:24:19.589Z,101169.04
2019-04-10T11:25:26.125Z,101177.62
2019-04-10T11:26:31.582Z,101173.66
2019-04-10T11:27:37.358Z,101174.03
2019-04-10T11:28:43.228Z,101175.28
2019-04-10T11:29:48.294Z,101171.52
2019-04-10T11:30:53.680Z,101176.02
2019-04-10T11:31:59.988Z,101169.84
2019-04-10T11:33:06.188Z,101166.70
2019-04-10T11:34:11.699Z,101169.22
2019-04-10T11:35:17.514Z,101170.07
2019-04-10T11:36:23.590Z,101173.44
2019-04-10T11:37:37.350Z,101180.69
2019-04-10T11:38:36.177Z,101181.54
2019-04-10T11:39:44.993Z,101187.34
2019-04-10T11:40:49.826Z,101178.28
2019-04-10T11:41:55.289Z,101174.91
2019-04-10T11:43:03.883Z,101176.02
2019-04-10T11:44:09.464Z,101184.01
2019-04-10T11:45:18.466Z,101179.27
2019-04-10T11:46:25.313Z,101173.72
2019-04-10T11:47:32.521Z,101184.75
2019-04-10T11:48:38.961Z,101178.09
2019-04-10T11:49:48.854Z,101181.83
2019-04-10T11:50:58.943Z,101180.83
2019-04-10T11:52:01.831Z,101184.61
2019-04-10T11:53:10.275Z,101177.44
2019-04-10T11:54:16.933Z,101185.42
2019-04-10T11:55:25.798Z,101184.94
2019-04-10T11:56:30.067Z,101183.61
2019-04-10T11:57:35.260Z,101173.33
2019-04-10T11:59:48.887Z,101182.76
2019-04-10T12:00:56.371Z,101179.10
2019-04-10T12:02:05.617Z,101178.62
2019-04-10T12:03:10.309Z,101180.80
2019-04-10T12:04:19.204Z,101178.84
2019-04-10T12:05:25.242Z,101181.50
2019-04-10T12:06:31.214Z,101183.35
2019-04-10T12:09:08.348Z,101177.29
2019-04-10T12:12:03.572Z,101186.09
2019-04-10T12:13:08.823Z,101192.13
2019-04-10T12:14:13.962Z,101191.02
2019-04-10T12:15:19.242Z,101183.88
2019-04-10T12:16:25.170Z,101186.05
2019-04-10T12:17:30.331Z,101191.97
2019-04-10T12:18:35.438Z,101183.50
2019-04-10T12:19:40.552Z,101185.05
2019-04-10T12:20:45.521Z,101182.39
2019-04-10T12:21:50.810Z,101190.75
2019-04-10T12:22:56.602Z,101179.09
2019-04-10T12:24:02.185Z,101192.79
2019-04-10T12:25:07.871Z,101190.98
2019-04-10T12:26:13.801Z,101188.67
2019-04-10T12:27:19.136Z,101190.83
2019-04-10T12:28:24.159Z,101188.16
2019-04-10T12:29:29.271Z,101179.84
2019-04-10T12:30:35.289Z,101176.69
2019-04-10T12:31:44.250Z,101195.56
2019-04-10T12:32:49.377Z,101187.91
2019-04-10T12:33:54.888Z,101191.42
2019-04-10T12:35:00.318Z,101194.45
2019-04-10T12:36:07.924Z,101187.78
2019-04-10T12:37:13.679Z,101194.93
2019-04-10T12:38:19.304Z,101193.48